createdAt,value
2023-04-14T00:03:30.134Z,14.07
2023-04-14T00:10:32.237Z,14.07
2023-04-14T00:17:33.938Z,14.05
2023-04-14T00:24:43.244Z,14.03
2023-04-14T00:31:44.900Z,14.15
2023-04-14T00:38:46.500Z,14.10
2023-04-14T00:45:48.666Z,14.05
2023-04-14T00:52:50.276Z,14.01
2023-04-14T00:59:52.405Z,14.01
2023-04-14T01:06:54.414Z,13.86
2023-04-14T01:14:19.142Z,13.84
2023-04-14T01:21:26.456Z,13.83
2023-04-14T01:29:04.910Z,13.81
2023-04-14T01:36:09.061Z,13.74
2023-04-14T01:43:11.342Z,13.88
2023-04-14T01:50:12.987Z,13.85
2023-04-14T01:57:14.599Z,13.75
2023-04-14T02:04:17.076Z,13.79
2023-04-14T02:11:19.221Z,13.75
2023-04-14T02:18:22.445Z,13.70
2023-04-14T02:25:25.459Z,13.60
2023-04-14T02:32:29.047Z,13.71
2023-04-14T02:39:32.067Z,13.67
2023-04-14T02:46:43.718Z,13.54
2023-04-14T02:53:45.532Z,13.30
2023-04-14T03:01:01.323Z,13.43
2023-04-14T03:08:03.270Z,13.57
2023-04-14T03:15:07.114Z,13.69
2023-04-14T03:22:09.127Z,13.57
2023-04-14T03:29:10.739Z,13.49
2023-04-14T03:36:12.764Z,13.34
2023-04-14T03:43:19.807Z,13.50
2023-04-14T03:50:23.050Z,13.27
2023-04-14T03:57:26.626Z,13.24
2023-04-14T04:04:29.180Z,13.29
2023-04-14T04:11:32.052Z,13.07
2023-04-14T04:18:33.890Z,13.10
2023-04-14T04:25:37.405Z,13.50
2023-04-14T04:32:50.423Z,13.51
2023-04-14T04:39:52.115Z,13.28
2023-04-14T04:46:55.812Z,13.25
2023-04-14T04:54:02.391Z,13.06
2023-04-14T05:01:10.455Z,13.08
2023-04-14T05:08:14.964Z,13.06
2023-04-14T05:15:16.795Z,13.19
2023-04-14T05:22:18.323Z,13.44
2023-04-14T05:29:20.058Z,13.37
2023-04-14T05:36:21.629Z,13.45
2023-04-14T05:43:23.159Z,13.46
2023-04-14T05:50:24.681Z,13.43
2023-04-14T05:57:26.892Z,13.44
2023-04-14T06:04:28.533Z,13.48
2023-04-14T06:11:30.540Z,13.41
2023-04-14T06:18:32.111Z,13.54
2023-04-14T06:25:36.712Z,13.47
2023-04-14T06:32:38.246Z,13.60
2023-04-14T06:39:39.827Z,13.48
2023-04-14T06:46:41.387Z,13.62
2023-04-14T06:53:42.948Z,13.74
2023-04-14T07:00:44.617Z,13.78
2023-04-14T07:07:46.345Z,13.85
2023-04-14T07:14:52.050Z,13.81
2023-04-14T07:21:53.985Z,13.82
2023-04-14T07:28:59.122Z,13.90
2023-04-14T07:36:03.493Z,13.94
2023-04-14T07:43:05.725Z,13.97
2023-04-14T07:50:07.684Z,13.90
2023-04-14T07:57:10.725Z,13.98
2023-04-14T08:04:12.528Z,13.84
2023-04-14T08:11:14.200Z,13.71
2023-04-14T08:18:15.786Z,13.70
2023-04-14T08:25:17.359Z,13.68
2023-04-14T08:32:18.917Z,13.78
2023-04-14T08:39:20.453Z,13.83
2023-04-14T08:46:22.053Z,13.79
2023-04-14T08:53:23.965Z,13.81
2023-04-14T09:00:25.481Z,13.92
2023-04-14T09:07:28.275Z,13.19
2023-04-14T09:14:31.677Z,13.89
2023-04-14T09:21:51.673Z,13.48
2023-04-14T09:28:54.663Z,13.43
2023-04-14T09:35:56.193Z,13.97
2023-04-14T09:42:57.900Z,13.58
2023-04-14T09:50:03.939Z,13.64
2023-04-14T09:57:06.185Z,13.77
2023-04-14T10:04:23.312Z,14.02
2023-04-14T10:11:27.421Z,13.84
2023-04-14T10:18:28.978Z,13.84
2023-04-14T10:25:31.030Z,14.05
2023-04-14T10:32:34.266Z,14.00
2023-04-14T10:39:36.614Z,13.81
2023-04-14T10:46:44.428Z,13.74
2023-04-14T10:53:50.189Z,13.84
2023-04-14T11:00:51.990Z,13.85
2023-04-14T11:07:56.042Z,13.57
2023-04-14T11:15:03.768Z,13.29
2023-04-14T11:22:05.336Z,13.78
2023-04-14T11:29:10.064Z,13.56
2023-04-14T11:36:13.030Z,13.64
2023-04-14T11:43:14.671Z,13.60
2023-04-14T11:50:16.896Z,13.49
2023-04-14T11:57:18.479Z,13.38
2023-04-14T12:04:20.287Z,13.37
2023-04-14T12:11:22.676Z,13.52
2023-04-14T12:18:24.222Z,13.28
2023-04-14T12:25:25.833Z,12.87
2023-04-14T12:32:29.777Z,13.39
2023-04-14T12:39:31.420Z,13.36
2023-04-14T12:46:33.107Z,13.23
2023-04-14T12:53:35.760Z,13.29
2023-04-14T13:00:37.358Z,12.93
2023-04-14T13:07:38.971Z,13.32
2023-04-14T13:14:40.530Z,13.40
2023-04-14T13:21:42.058Z,13.44
2023-04-14T13:28:43.675Z,13.56
2023-04-14T13:35:45.295Z,13.25
2023-04-14T13:42:46.816Z,12.94
2023-04-14T13:49:48.458Z,13.24
2023-04-14T13:56:50.072Z,13.14
2023-04-14T14:03:51.836Z,13.45
2023-04-14T14:10:53.455Z,13.17
2023-04-14T14:17:55.089Z,13.18
2023-04-14T14:25:10.852Z,13.12
2023-04-14T14:32:17.074Z,13.30
2023-04-14T14:39:18.632Z,13.35
2023-04-14T14:46:20.279Z,13.44
2023-04-14T14:53:21.975Z,13.33
2023-04-14T15:00:23.607Z,12.86
2023-04-14T15:07:25.143Z,12.91
2023-04-14T15:14:27.214Z,12.88
2023-04-14T15:21:28.871Z,12.96
2023-04-14T15:28:30.562Z,12.89
2023-04-14T15:35:38.859Z,13.16
2023-04-14T15:42:41.559Z,13.19
2023-04-14T15:49:44.576Z,13.20
2023-04-14T15:56:52.468Z,12.67
2023-04-14T16:03:54.059Z,13.17
2023-04-14T16:10:55.666Z,13.12
2023-04-14T16:17:57.222Z,12.91
2023-04-14T16:24:58.766Z,13.15
2023-04-14T16:32:00.343Z,13.07
2023-04-14T16:39:02.050Z,12.67
2023-04-14T16:46:04.133Z,12.95
2023-04-14T16:53:05.786Z,12.91
2023-04-14T17:00:08.033Z,13.00
2023-04-14T17:07:09.608Z,12.86
2023-04-14T17:14:11.343Z,12.90
2023-04-14T17:21:12.935Z,13.05
2023-04-14T17:28:15.509Z,13.01
2023-04-14T17:35:17.064Z,12.76
2023-04-14T17:42:18.674Z,12.66
2023-04-14T17:49:21.151Z,12.63
2023-04-14T17:56:22.679Z,12.84
2023-04-14T18:03:24.450Z,12.84
2023-04-14T18:10:26.334Z,12.79
2023-04-14T18:17:28.938Z,12.72
2023-04-14T18:31:35.309Z,12.49
2023-04-14T18:38:37.340Z,12.71
2023-04-14T18:45:38.939Z,12.68
2023-04-14T18:52:40.651Z,12.69
2023-04-14T18:59:42.187Z,12.49
2023-04-14T19:06:43.717Z,12.49
2023-04-14T19:13:45.260Z,12.52
2023-04-14T19:20:47.640Z,12.52
2023-04-14T19:27:49.313Z,12.39
2023-04-14T19:34:51.429Z,12.30
2023-04-14T19:41:53.057Z,12.31
2023-04-14T19:48:54.942Z,12.51
2023-04-14T19:55:57.902Z,12.45
2023-04-14T20:02:59.592Z,12.36
2023-04-14T20:10:01.641Z,12.41
2023-04-14T20:17:03.344Z,12.74
2023-04-14T20:24:05.810Z,12.84
2023-04-14T20:31:08.743Z,12.70
2023-04-14T20:38:12.717Z,12.73
2023-04-14T20:45:16.257Z,12.39
2023-04-14T20:52:17.841Z,12.60
2023-04-14T20:59:19.420Z,12.57
2023-04-14T21:06:21.011Z,12.63
2023-04-14T21:15:28.430Z,12.76
2023-04-14T21:20:44.171Z,12.64
2023-04-14T21:27:45.700Z,12.97
2023-04-14T21:34:47.286Z,12.53
2023-04-14T21:41:49.205Z,12.64
2023-04-14T21:48:50.820Z,12.62
2023-04-14T21:56:08.401Z,12.48
2023-04-14T22:03:12.575Z,12.50
2023-04-14T22:10:14.674Z,12.50
2023-04-14T22:17:16.377Z,12.38
2023-04-14T22:24:18.523Z,12.56
2023-04-14T22:31:20.222Z,12.30
2023-04-14T22:38:21.812Z,12.46
2023-04-14T22:45:23.335Z,12.59
2023-04-14T22:52:25.774Z,12.27
2023-04-14T22:59:27.303Z,12.37
2023-04-14T23:06:28.880Z,12.29
2023-04-14T23:13:30.640Z,12.59
2023-04-14T23:20:32.279Z,12.46
2023-04-14T23:27:33.801Z,12.35
2023-04-14T23:34:36.108Z,12.44
2023-04-14T23:41:37.638Z,12.56
2023-04-14T23:48:39.172Z,12.76
2023-04-14T23:55:40.908Z,12.65
